Time;durP1;ratioP1;P1;durP2;ratioP2;P2;SDS_P1;SDS_P2;PMS_P1;PMS_P2;Temp;Humidity;BMP_temperature;BMP_pressure;BME280_temperature;BME280_humidity;BME280_pressure;Samples;Min_cycle;Max_cycle;Signal;HPM_P1;HPM_P2
2023/03/01 00:00:38;;;;;;;15.98;9.30;;;;;;;-3.95;100.00;103355.75;5072332;28;20453;-71
2023/03/01 00:03:04;;;;;;;15.95;9.18;;;;;;;-3.99;100.00;103351.38;5072549;28;20029;-71
2023/03/01 00:05:29;;;;;;;14.27;9.02;;;;;;;-4.02;100.00;103359.13;5071477;28;20082;-71
2023/03/01 00:07:55;;;;;;;17.17;9.65;;;;;;;-4.03;100.00;103359.13;5072230;28;20028;-71
2023/03/01 00:10:20;;;;;;;15.02;9.93;;;;;;;-4.03;100.00;103356.53;5072747;28;20032;-71
2023/03/01 00:12:46;;;;;;;14.30;9.57;;;;;;;-4.03;100.00;103362.63;5076138;28;20587;-71
2023/03/01 00:15:11;;;;;;;13.57;8.85;;;;;;;-4.03;100.00;103359.13;5059929;28;20079;-72
2023/03/01 00:17:37;;;;;;;13.48;8.38;;;;;;;-4.05;100.00;103364.31;5077936;28;20035;-72
2023/03/01 00:20:05;;;;;;;15.52;9.32;;;;;;;-4.02;100.00;103351.34;5077443;28;20491;-72
2023/03/01 00:22:33;;;;;;;18.65;9.13;;;;;;;-4.04;100.00;103349.59;5075903;28;20028;-73
2023/03/01 00:24:58;;;;;;;16.33;9.38;;;;;;;-4.06;100.00;103344.38;5075816;28;20035;-71
2023/03/01 00:27:23;;;;;;;14.02;8.98;;;;;;;-4.04;100.00;103340.06;5057465;28;20380;-70
2023/03/01 00:29:49;;;;;;;15.70;9.77;;;;;;;-3.98;100.00;103347.91;5076233;28;20058;-71
2023/03/01 00:32:14;;;;;;;15.27;9.57;;;;;;;-3.96;100.00;103337.53;5075844;28;20056;-72
2023/03/01 00:34:39;;;;;;;14.65;9.10;;;;;;;-3.97;100.00;103338.38;5075114;28;20036;-71
2023/03/01 00:37:05;;;;;;;20.65;10.52;;;;;;;-3.98;100.00;103332.31;5075752;28;20070;-71
2023/03/01 00:39:32;;;;;;;17.05;10.27;;;;;;;-3.95;100.00;103344.50;5075135;28;20060;-73
2023/03/01 00:41:57;;;;;;;18.67;10.05;;;;;;;-3.96;100.00;103335.78;5075762;28;20029;-72
2023/03/01 00:44:23;;;;;;;15.63;9.63;;;;;;;-3.95;100.00;103342.75;5075291;28;20102;-72
2023/03/01 00:46:48;;;;;;;17.20;9.60;;;;;;;-3.98;100.00;103334.06;5075715;28;20527;-71
2023/03/01 00:49:14;;;;;;;15.05;9.20;;;;;;;-4.01;100.00;103334.03;5057432;28;20077;-72
2023/03/01 00:51:41;;;;;;;12.75;9.05;;;;;;;-4.03;100.00;103339.22;5074733;28;20059;-71
2023/03/01 00:54:08;;;;;;;18.90;10.30;;;;;;;-4.05;100.00;103342.66;5057438;28;20386;-73
2023/03/01 00:56:33;;;;;;;14.70;9.68;;;;;;;-4.05;100.00;103337.44;5074977;28;20045;-73
2023/03/01 00:58:59;;;;;;;19.88;10.27;;;;;;;-4.06;100.00;103341.78;5075362;28;20029;-71
2023/03/01 01:01:29;;;;;;;16.50;9.75;;;;;;;-4.09;100.00;103332.22;5056812;28;20024;-73
2023/03/01 01:04:03;;;;;;;20.50;10.50;;;;;;;-4.12;100.00;103334.78;5075134;28;20473;-72
2023/03/01 01:06:32;;;;;;;20.70;10.77;;;;;;;-4.12;100.00;103331.28;5074810;28;20029;-72
2023/03/01 01:08:58;;;;;;;15.05;10.18;;;;;;;-4.17;100.00;103326.03;5075097;28;20021;-72
2023/03/01 01:11:25;;;;;;;14.32;9.60;;;;;;;-4.17;100.00;103330.38;5074656;28;20346;-72
2023/03/01 01:13:51;;;;;;;18.40;11.85;;;;;;;-4.19;100.00;103332.97;5074964;28;20036;-72
2023/03/01 01:16:18;;;;;;;17.77;10.68;;;;;;;-4.20;100.00;103327.75;5075078;28;20029;-71
2023/03/01 01:18:44;;;;;;;17.10;10.68;;;;;;;-4.23;100.00;103325.97;5074557;28;20472;-72
2023/03/01 01:21:13;;;;;;;17.30;10.70;;;;;;;-4.28;100.00;103323.31;5074645;28;20033;-70
2023/03/01 01:23:39;;;;;;;16.17;10.57;;;;;;;-4.30;100.00;103329.34;5073700;28;20032;-70
2023/03/01 01:26:11;;;;;;;15.52;10.40;;;;;;;-4.35;100.00;103325.84;5074803;28;20025;-70
2023/03/01 01:28:37;;;;;;;;;;;;;;;-4.41;100.00;103317.97;5074868;28;20024;-70
2023/03/01 01:31:03;;;;;;;14.80;9.57;;;;;;;-4.43;100.00;103320.56;5074868;28;19938;-70
2023/03/01 01:33:28;;;;;;;21.85;10.02;;;;;;;-4.46;100.00;103311.00;5056384;28;20029;-70
2023/03/01 01:35:54;;;;;;;17.13;9.95;;;;;;;-4.48;100.00;103302.31;5056639;28;20121;-70
2023/03/01 01:38:21;;;;;;;15.20;10.02;;;;;;;-4.50;100.00;103305.75;5074795;28;20418;-70
2023/03/01 01:40:47;;;;;;;16.75;10.55;;;;;;;-4.54;100.00;103298.75;5073947;28;20552;-70
2023/03/01 01:43:25;;;;;;;19.05;11.05;;;;;;;-4.59;100.00;103293.50;5074881;28;20037;-70
2023/03/01 01:45:54;;;;;;;17.33;10.57;;;;;;;-4.62;100.00;103289.13;5074592;28;20036;-70
2023/03/01 01:48:23;;;;;;;17.58;11.00;;;;;;;-4.64;100.00;103284.78;5074518;28;20031;-71
2023/03/01 01:50:56;;;;;;;18.80;10.77;;;;;;;-4.64;100.00;103283.06;5074261;28;20028;-71
2023/03/01 01:53:23;;;;;;;19.85;10.50;;;;;;;-4.63;100.00;103279.63;5074206;28;20053;-70
2023/03/01 01:55:56;;;;;;;16.45;11.13;;;;;;;-4.65;100.00;103280.44;5073759;28;20049;-73
2023/03/01 01:58:23;;;;;;;20.15;10.70;;;;;;;-4.67;100.00;103271.75;5074385;28;20028;-70
2023/03/01 02:00:49;;;;;;;19.60;11.05;;;;;;;-4.70;100.00;103269.09;5055784;28;20098;-71
2023/03/01 02:03:22;;;;;;;18.27;10.88;;;;;;;-4.72;100.00;103263.88;5074218;28;20465;-71
2023/03/01 02:05:57;;;;;;;18.98;11.27;;;;;;;-4.71;100.00;103264.78;5073405;28;20382;-71
2023/03/01 02:08:25;;;;;;;20.77;11.75;;;;;;;-4.74;100.00;103263.00;5074204;28;20036;-71
2023/03/01 02:10:52;;;;;;;17.27;11.15;;;;;;;-4.77;100.00;103265.56;5073429;28;20029;-71
2023/03/01 02:13:17;;;;;;;24.15;11.18;;;;;;;-4.79;100.00;103268.16;5073704;28;20028;-71
2023/03/01 02:15:43;;;;;;;19.33;11.15;;;;;;;-4.81;100.00;103266.38;5073455;28;20081;-71
2023/03/01 02:18:11;;;;;;;23.27;10.68;;;;;;;-4.82;100.00;103268.13;5073849;28;20040;-71
2023/03/01 02:20:58;;;;;;;19.20;11.35;;;;;;;-4.85;100.00;103262.88;5073447;28;20115;-71
2023/03/01 02:23:25;;;;;;;20.40;11.35;;;;;;;-4.87;100.00;103256.78;5073862;28;20062;-71
2023/03/01 02:26:13;;;;;;;27.63;12.93;;;;;;;-4.88;100.00;103260.25;5073165;28;20131;-71
2023/03/01 02:28:42;;;;;;;20.25;12.07;;;;;;;-4.91;100.00;103257.63;5067328;28;20045;-71
2023/03/01 02:33:54;;;;;;;19.25;11.85;;;;;;;-4.92;100.00;103258.47;5072730;28;20066;-71
2023/03/01 02:36:26;;;;;;;20.17;11.43;;;;;;;-4.92;100.00;103258.47;5073444;28;20028;-71
2023/03/01 02:38:56;;;;;;;20.45;11.73;;;;;;;-4.93;100.00;103259.31;5072971;28;20163;-71
2023/03/01 02:41:24;;;;;;;20.88;12.60;;;;;;;-4.97;100.00;103255.81;5073834;28;20028;-71
2023/03/01 02:43:49;;;;;;;22.45;12.27;;;;;;;-4.98;100.00;103260.97;5072991;28;20040;-71
2023/03/01 02:46:18;;;;;;;28.00;12.65;;;;;;;-5.00;100.00;103252.28;5073235;28;20029;-71
2023/03/01 02:48:50;;;;;;;26.60;13.10;;;;;;;-5.01;100.00;103253.16;5072931;28;20025;-71
2023/03/01 02:51:25;;;;;;;24.02;12.13;;;;;;;-5.02;100.00;103252.25;5073546;28;20035;-71
2023/03/01 02:53:59;;;;;;;20.77;12.68;;;;;;;-5.04;100.00;103248.78;5072733;28;20039;-72
2023/03/01 02:56:25;;;;;;;21.02;12.23;;;;;;;-5.07;100.00;103237.50;5073724;28;20079;-71
2023/03/01 02:58:51;;;;;;;20.35;13.00;;;;;;;-5.08;100.00;103240.94;5072746;28;20037;-72
2023/03/01 03:01:18;;;;;;;22.42;13.40;;;;;;;-5.08;100.00;103238.34;5075137;28;20028;-71
2023/03/01 03:03:44;;;;;;;19.42;12.30;;;;;;;-5.08;100.00;103233.16;5075666;28;20379;-72
2023/03/01 03:06:09;;;;;;;19.92;12.32;;;;;;;-5.12;100.00;103232.22;5076849;28;20044;-71
2023/03/01 03:08:35;;;;;;;21.63;12.45;;;;;;;-5.13;100.00;103228.75;5073679;28;20029;-73
2023/03/01 03:11:01;;;;;;;19.67;12.43;;;;;;;-5.13;100.00;103227.91;5073000;28;20041;-71
2023/03/01 03:13:28;;;;;;;19.67;11.90;;;;;;;-5.15;100.00;103221.78;5073075;28;20453;-72
2023/03/01 03:15:57;;;;;;;24.80;13.13;;;;;;;-5.17;100.00;103220.91;5072327;28;20024;-71
2023/03/01 03:18:25;;;;;;;22.92;13.10;;;;;;;-5.16;100.00;103223.53;5072486;28;20039;-71
2023/03/01 03:20:52;;;;;;;22.63;13.13;;;;;;;-5.16;100.00;103222.66;5072406;28;20033;-71
2023/03/01 03:23:21;;;;;;;22.90;13.30;;;;;;;-5.17;100.00;103220.91;5072806;28;20066;-71
2023/03/01 03:25:49;;;;;;;25.83;13.98;;;;;;;-5.19;100.00;103212.25;5054875;28;20119;-71
2023/03/01 03:28:15;;;;;;;24.42;12.27;;;;;;;-5.19;100.00;103214.84;5054891;28;20051;-72
2023/03/01 03:30:41;;;;;;;22.58;12.77;;;;;;;-5.21;100.00;103208.75;5072315;28;20039;-72
2023/03/01 03:33:08;;;;;;;25.77;13.20;;;;;;;-5.23;100.00;103207.84;5073053;28;20060;-72
2023/03/01 03:35:41;;;;;;;22.52;13.57;;;;;;;-5.25;100.00;103210.44;5072472;28;20028;-73
2023/03/01 03:38:15;;;;;;;24.02;13.68;;;;;;;-5.28;100.00;103209.50;5072768;28;20039;-73
2023/03/01 03:40:52;;;;;;;23.83;13.77;;;;;;;-5.28;100.00;103213.00;5072393;28;20047;-73
2023/03/01 03:43:22;;;;;;;22.15;13.80;;;;;;;-5.33;100.00;103212.03;5072603;28;20025;-73
2023/03/01 03:45:50;;;;;;;27.63;13.70;;;;;;;-5.35;100.00;103213.75;5071439;28;20071;-73
2023/03/01 03:48:16;;;;;;;25.92;13.85;;;;;;;-5.39;100.00;103218.03;5054777;28;20037;-73
2023/03/01 03:50:41;;;;;;;21.13;13.55;;;;;;;-5.42;100.00;103212.81;5071984;28;20024;-73
2023/03/01 03:53:11;;;;;;;23.20;13.63;;;;;;;-5.42;100.00;103210.22;5054043;28;20032;-72
2023/03/01 03:55:38;;;;;;;22.13;13.63;;;;;;;-5.42;100.00;103207.63;5072198;28;20130;-72
2023/03/01 03:58:09;;;;;;;24.48;15.27;;;;;;;-5.44;100.00;103205.84;5071755;28;20024;-72
2023/03/01 04:00:37;;;;;;;24.25;13.90;;;;;;;-5.46;100.00;103200.63;5054513;28;20033;-72
2023/03/01 04:03:03;;;;;;;26.85;15.60;;;;;;;-5.46;100.00;103204.94;5072089;28;20068;-72
2023/03/01 04:05:28;;;;;;;26.08;14.68;;;;;;;-5.49;100.00;103205.78;5054533;28;20024;-72
2023/03/01 04:08:00;;;;;;;25.80;15.07;;;;;;;-5.51;100.00;103207.47;5071767;28;20063;-72
2023/03/01 04:10:30;;;;;;;30.52;14.65;;;;;;;-5.52;100.00;103208.34;5072467;28;20040;-73
2023/03/01 04:12:55;;;;;;;28.45;14.32;;;;;;;-5.52;100.00;103205.75;5071850;28;20031;-73
2023/03/01 04:15:23;;;;;;;26.70;14.48;;;;;;;-5.54;100.00;103199.63;5053967;28;20032;-72
2023/03/01 04:17:50;;;;;;;26.02;15.60;;;;;;;-5.55;100.00;103205.69;5071732;28;20078;-73
2023/03/01 04:20:24;;;;;;;25.98;14.23;;;;;;;-5.59;100.00;103207.34;5054169;28;20021;-73
2023/03/01 04:22:58;;;;;;;29.02;14.43;;;;;;;-5.61;100.00;103195.19;5071721;28;20039;-73
2023/03/01 04:25:24;;;;;;;29.48;14.68;;;;;;;-5.63;100.00;103202.09;5071952;28;20427;-73
2023/03/01 04:27:49;;;;;;;28.00;14.88;;;;;;;-5.64;100.00;103193.47;5053663;28;20040;-73
2023/03/01 04:30:15;;;;;;;26.40;14.48;;;;;;;-5.65;100.00;103190.84;5071983;28;20484;-73
2023/03/01 04:32:40;;;;;;;28.42;14.60;;;;;;;-5.68;100.00;103183.88;5054134;28;20043;-74
2023/03/01 04:35:06;;;;;;;23.23;14.18;;;;;;;-5.68;100.00;103191.66;5071575;28;20124;-73
2023/03/01 04:37:32;;;;;;;27.55;14.20;;;;;;;-5.69;100.00;103192.50;5072150;28;20035;-73
2023/03/01 04:39:58;;;;;;;26.60;15.05;;;;;;;-5.68;100.00;103189.94;5053228;28;20032;-73
2023/03/01 04:42:23;;;;;;;33.33;16.98;;;;;;;-5.63;100.00;103187.41;5053817;28;20105;-74
2023/03/01 04:44:51;;;;;;;30.25;16.00;;;;;;;-5.56;100.00;103188.38;5053218;28;20037;-73
2023/03/01 04:47:16;;;;;;;31.05;16.48;;;;;;;-5.51;100.00;103187.59;5054148;28;20342;-73
2023/03/01 04:49:42;;;;;;;34.40;17.20;;;;;;;-5.49;100.00;103183.28;5053365;28;20156;-74
2023/03/01 04:52:07;;;;;;;26.55;14.77;;;;;;;-5.49;100.00;103182.44;5053392;28;20043;-73
2023/03/01 04:54:34;;;;;;;37.72;18.08;;;;;;;-5.46;100.00;103174.69;5071486;28;20033;-73
2023/03/01 04:57:01;;;;;;;34.47;17.50;;;;;;;-5.47;100.00;103174.66;5072626;28;20071;-73
2023/03/01 04:59:26;;;;;;;36.05;16.38;;;;;;;-5.49;100.00;103167.72;5057355;28;20033;-73
2023/03/01 05:01:55;;;;;;;31.25;16.58;;;;;;;-5.47;100.00;103164.28;5057087;28;20131;-73
2023/03/01 05:04:21;;;;;;;33.03;16.15;;;;;;;-5.49;100.00;103159.94;5075256;28;20043;-73
2023/03/01 05:06:46;;;;;;;56.47;14.07;;;;;;;-5.49;100.00;103161.66;5075451;28;20025;-72
2023/03/01 05:09:11;;;;;;;24.15;13.13;;;;;;;-5.47;100.00;103159.97;5074561;28;20028;-73
2023/03/01 05:11:37;;;;;;;23.48;13.05;;;;;;;-5.44;100.00;103167.78;5075234;28;20112;-73
2023/03/01 05:14:04;;;;;;;26.20;13.07;;;;;;;-5.47;100.00;103162.56;5074376;28;20033;-73
2023/03/01 05:16:30;;;;;;;19.85;12.77;;;;;;;-5.47;100.00;103167.75;5075009;28;20112;-73
2023/03/01 05:18:56;;;;;;;18.60;11.63;;;;;;;-5.48;100.00;103163.38;5074530;28;20043;-73
2023/03/01 05:21:22;;;;;;;22.10;13.38;;;;;;;-5.48;100.00;103160.78;5074831;28;20033;-73
2023/03/01 05:23:47;;;;;;;29.88;12.95;;;;;;;-5.51;100.00;103156.47;5074835;28;20036;-73
2023/03/01 05:26:14;;;;;;;24.30;13.65;;;;;;;-5.51;100.00;103155.56;5074384;28;20056;-72
2023/03/01 05:28:39;;;;;;;24.05;14.32;;;;;;;-5.54;100.00;103153.81;5074575;28;20137;-73
2023/03/01 05:31:09;;;;;;;31.27;13.00;;;;;;;-5.59;100.00;103147.69;5074339;28;20073;-73
2023/03/01 05:33:36;;;;;;;30.35;14.05;;;;;;;-5.62;100.00;103146.78;5074865;28;20033;-73
2023/03/01 05:36:01;;;;;;;32.05;14.48;;;;;;;-5.70;100.00;103146.69;5074262;28;20029;-73
2023/03/01 05:38:26;;;;;;;23.90;13.80;;;;;;;-5.77;100.00;103142.25;5056452;28;20055;-73
2023/03/01 05:40:52;;;;;;;23.42;13.60;;;;;;;-5.80;100.00;103143.06;5074204;28;20043;-73
2023/03/01 05:43:17;;;;;;;25.02;14.23;;;;;;;-5.83;100.00;103135.25;5073849;28;20040;-73
2023/03/01 05:45:43;;;;;;;23.48;13.80;;;;;;;-5.91;100.00;103135.13;5074483;28;20115;-73
2023/03/01 05:48:10;;;;;;;21.00;12.80;;;;;;;-5.93;100.00;103133.38;5073853;28;20037;-73
2023/03/01 05:50:40;;;;;;;24.67;14.70;;;;;;;-5.94;100.00;103127.31;5074602;28;20094;-73
2023/03/01 05:53:16;;;;;;;26.05;14.40;;;;;;;-5.96;100.00;103125.53;5073794;28;20028;-73
2023/03/01 05:55:42;;;;;;;26.40;15.90;;;;;;;-5.99;100.00;103126.38;5074275;28;20131;-74
2023/03/01 05:58:12;;;;;;;27.27;14.40;;;;;;;-6.01;100.00;103130.69;5055898;28;20123;-74
2023/03/01 06:00:38;;;;;;;24.73;13.70;;;;;;;-6.01;100.00;103120.31;5056573;28;20354;-74
2023/03/01 06:03:03;;;;;;;28.83;15.23;;;;;;;-6.01;100.00;103124.66;5073969;28;20119;-70
2023/03/01 06:05:29;;;;;;;25.77;15.60;;;;;;;-5.82;100.00;103124.03;5057006;28;20036;-70
2023/03/01 06:07:55;;;;;;;33.40;17.60;;;;;;;-5.73;100.00;103121.56;5073419;28;20029;-71
2023/03/01 06:10:22;;;;;;;29.60;15.38;;;;;;;-5.71;100.00;103119.00;5073778;28;20063;-74
2023/03/01 06:12:48;;;;;;;30.63;15.32;;;;;;;-5.74;100.00;103117.22;5073882;28;20036;-73
2023/03/01 06:15:15;;;;;;;25.98;14.65;;;;;;;-5.81;100.00;103115.38;5073314;28;20150;-70
2023/03/01 06:17:42;;;;;;;24.23;14.48;;;;;;;-5.90;100.00;103116.13;5073812;28;20029;-75
2023/03/01 06:20:16;;;;;;;24.67;14.23;;;;;;;-6.00;100.00;103116.88;5056041;28;20481;-76
2023/03/01 06:22:43;;;;;;;23.85;14.38;;;;;;;-6.07;100.00;103121.09;5050827;28;20108;-75
2023/03/01 06:25:09;;;;;;;24.52;13.80;;;;;;;-6.11;100.00;103118.44;5050695;28;20037;-74
2023/03/01 06:27:35;;;;;;;24.05;13.40;;;;;;;-6.14;100.00;103114.06;5050903;28;20041;-74
2023/03/01 06:30:01;;;;;;;27.20;13.68;;;;;;;-6.14;100.00;103123.56;5050440;28;20029;-75
2023/03/01 06:32:26;;;;;;;28.65;14.32;;;;;;;-6.15;100.00;103124.41;5051001;28;20048;-75
2023/03/01 06:34:52;;;;;;;25.95;14.00;;;;;;;-6.14;100.00;103119.25;5050717;28;20055;-74
2023/03/01 06:37:17;;;;;;;21.80;13.27;;;;;;;-6.12;100.00;103121.88;5050639;28;20064;-75
2023/03/01 06:39:42;;;;;;;28.52;13.77;;;;;;;-6.10;100.00;103126.25;5050631;28;20363;-74
2023/03/01 06:42:09;;;;;;;26.63;14.32;;;;;;;-6.08;100.00;103114.16;5050001;28;20033;-75
2023/03/01 06:44:35;;;;;;;26.45;14.77;;;;;;;-6.05;100.00;103115.94;5050714;28;20078;-74
2023/03/01 06:47:01;;;;;;;22.10;13.95;;;;;;;-6.01;100.00;103122.91;5050601;28;20041;-72
2023/03/01 06:49:27;;;;;;;25.48;13.57;;;;;;;-5.98;100.00;103122.09;5050759;28;20040;-73
2023/03/01 06:51:52;;;;;;;24.75;14.82;;;;;;;-5.95;100.00;103125.56;5050488;28;20055;-73
2023/03/01 06:54:18;;;;;;;24.50;14.57;;;;;;;-5.91;100.00;103126.47;5049818;28;20029;-74
2023/03/01 06:56:46;;;;;;;23.77;13.30;;;;;;;-5.89;100.00;103119.59;5050088;28;20059;-73
2023/03/01 06:59:12;;;;;;;21.90;13.35;;;;;;;-5.83;100.00;103126.59;5050144;28;20515;-73
2023/03/01 07:01:38;;;;;;;28.90;15.75;;;;;;;-5.79;100.00;103126.66;5049729;28;20041;-74
2023/03/01 07:04:03;;;;;;;32.95;17.50;;;;;;;-5.74;100.00;103126.72;5051605;28;20037;-76
2023/03/01 07:06:29;;;;;;;28.83;14.85;;;;;;;-5.71;100.00;103127.63;5050782;28;20037;-73
2023/03/01 07:08:54;;;;;;;24.20;14.60;;;;;;;-5.64;100.00;103119.94;5050933;28;20064;-73
2023/03/01 07:11:20;;;;;;;27.23;15.38;;;;;;;-5.60;100.00;103120.00;5032515;28;20043;-73
2023/03/01 07:13:45;;;;;;;27.50;15.85;;;;;;;-5.53;100.00;103127.00;5032401;28;20063;-73
2023/03/01 07:16:11;;;;;;;27.45;14.75;;;;;;;-5.47;100.00;103117.59;5050007;28;20529;-73
2023/03/01 07:18:36;;;;;;;25.45;14.85;;;;;;;-5.40;100.00;103122.00;5050227;28;20037;-76
2023/03/01 07:21:10;;;;;;;25.50;14.93;;;;;;;-5.32;100.00;103118.63;5048996;28;20078;-75
2023/03/01 07:23:36;;;;;;;29.15;15.43;;;;;;;-5.22;100.00;103126.53;5049888;28;20036;-73
2023/03/01 07:26:02;;;;;;;26.40;14.93;;;;;;;-5.15;100.00;103124.03;5049999;28;20375;-72
2023/03/01 07:28:27;;;;;;;26.75;15.48;;;;;;;-5.05;100.00;103124.13;5049430;28;20044;-74
2023/03/01 07:30:53;;;;;;;30.48;16.50;;;;;;;-4.98;100.00;103126.81;5031543;28;20056;-74
2023/03/01 07:33:19;;;;;;;30.90;17.30;;;;;;;-4.88;100.00;103121.72;5049107;28;20048;-72
2023/03/01 07:35:44;;;;;;;34.70;19.48;;;;;;;-4.79;100.00;103127.03;5032008;28;20036;-75
2023/03/01 07:38:10;;;;;;;31.35;18.77;;;;;;;-4.70;100.00;103124.50;5031707;28;20109;-74
2023/03/01 07:40:35;;;;;;;33.10;18.73;;;;;;;-4.58;100.00;103128.06;5049859;28;20079;-76
2023/03/01 07:43:01;;;;;;;32.30;17.40;;;;;;;-4.45;100.00;103135.13;5049540;28;20045;-74
2023/03/01 07:45:27;;;;;;;30.13;17.60;;;;;;;-4.33;100.00;103131.75;5049685;28;20041;-73
2023/03/01 07:47:52;;;;;;;30.23;16.88;;;;;;;-4.19;100.00;103134.50;5049780;28;20101;-73
2023/03/01 07:50:18;;;;;;;35.35;18.85;;;;;;;-4.04;100.00;103139.78;5049216;28;20037;-76
2023/03/01 07:52:48;;;;;;;27.80;16.73;;;;;;;-3.91;100.00;103133.81;5050112;28;20029;-74
2023/03/01 07:55:16;;;;;;;32.10;17.42;;;;;;;-3.75;100.00;103134.81;5048859;28;20053;-73
2023/03/01 07:57:42;;;;;;;31.42;18.38;;;;;;;-3.57;100.00;103135.75;5031748;28;20354;-74
2023/03/01 08:00:11;;;;;;;29.10;16.75;;;;;;;-3.44;100.00;103131.47;5050252;28;20153;-74
2023/03/01 08:02:36;;;;;;;32.17;18.00;;;;;;;-3.28;100.00;103137.63;5051702;28;20021;-74
2023/03/01 08:05:02;;;;;;;33.30;19.58;;;;;;;-3.12;100.00;103138.53;5049499;28;20044;-74
2023/03/01 08:07:27;;;;;;;33.83;18.27;;;;;;;-2.96;100.00;103129.91;5048825;28;20048;-73
2023/03/01 08:09:53;;;;;;;37.90;19.70;;;;;;;-2.77;100.00;103137.78;5049459;28;20441;-73
2023/03/01 08:12:18;;;;;;;33.05;20.10;;;;;;;-2.62;100.00;103132.59;5048830;28;20120;-74
2023/03/01 08:14:43;;;;;;;38.85;21.77;;;;;;;-2.45;100.00;103134.34;5031240;28;20093;-75
2023/03/01 08:17:09;;;;;;;41.28;22.10;;;;;;;-2.27;100.00;103133.47;5031387;28;20037;-72
2023/03/01 08:19:34;;;;;;;41.13;21.73;;;;;;;-2.14;100.00;103133.47;5048678;28;20029;-74
2023/03/01 08:22:02;;;;;;;39.22;22.40;;;;;;;-2.04;100.00;103123.91;5049511;28;20123;-72
2023/03/01 08:24:28;;;;;;;42.33;22.75;;;;;;;-1.92;100.00;103123.03;5048935;28;20060;-73
2023/03/01 08:26:54;;;;;;;43.08;23.73;;;;;;;-1.79;100.00;103122.13;5049307;28;20056;-72
2023/03/01 08:29:19;;;;;;;44.90;23.08;;;;;;;-1.65;100.00;103124.69;5048771;28;20371;-74
2023/03/01 08:31:44;;;;;;;47.80;26.60;;;;;;;-1.50;100.00;103129.00;5050383;28;20114;-73
2023/03/01 08:34:13;;;;;;;43.38;23.05;;;;;;;-1.38;100.00;103122.88;5053010;28;20033;-74
2023/03/01 08:36:40;;;;;;;37.80;21.85;;;;;;;-1.26;100.00;103127.19;5052834;28;20475;-73
2023/03/01 08:39:07;;;;;;;36.88;22.50;;;;;;;-1.12;100.00;103127.09;5053116;28;20036;-73
2023/03/01 08:41:33;;;;;;;35.92;21.60;;;;;;;-1.02;100.00;103123.56;5052528;28;20033;-73
2023/03/01 08:43:58;;;;;;;36.03;21.52;;;;;;;-0.86;100.00;103120.91;5051562;28;20040;-75
2023/03/01 08:46:29;;;;;;;37.50;23.27;;;;;;;-0.73;100.00;103118.19;5034852;28;20051;-73
2023/03/01 08:48:54;;;;;;;38.53;23.15;;;;;;;-0.54;100.00;103118.03;5053147;28;20426;-72
2023/03/01 08:51:21;;;;;;;37.40;22.33;;;;;;;-0.36;100.00;103122.25;5052400;28;20037;-74
2023/03/01 08:53:47;;;;;;;40.17;23.30;;;;;;;-0.15;100.00;103121.22;5052783;28;20335;-74
2023/03/01 08:56:13;;;;;;;36.65;22.98;;;;;;;0.11;100.00;103114.88;5052065;28;20056;-73
2023/03/01 08:58:42;;;;;;;39.08;22.85;;;;;;;0.47;100.00;103125.81;5055182;28;20028;-73
2023/03/01 09:01:09;;;;;;;32.90;21.65;;;;;;;0.97;100.00;103133.94;5068547;28;20435;-73
2023/03/01 09:03:34;;;;;;;34.17;21.35;;;;;;;1.53;100.00;103118.25;5073840;28;20507;-72
2023/03/01 09:06:01;;;;;;;28.90;19.35;;;;;;;2.28;100.00;103121.31;5057476;28;20213;-73
2023/03/01 09:08:27;;;;;;;29.48;19.42;;;;;;;3.38;100.00;103125.13;5074848;28;20024;-75
2023/03/01 09:10:52;;;;;;;26.08;18.65;;;;;;;4.83;100.00;103110.69;5075471;28;20037;-75
2023/03/01 09:13:17;;;;;;;26.95;17.50;;;;;;;6.31;100.00;103112.91;5075325;28;20112;-76
2023/03/01 09:15:43;;;;;;;23.60;16.20;;;;;;;7.73;100.00;103110.88;5057296;28;20033;-75
2023/03/01 09:18:08;;;;;;;22.42;15.52;;;;;;;8.78;100.00;103108.91;5075531;28;20040;-76
2023/03/01 09:20:34;;;;;;;20.85;15.23;;;;;;;9.53;95.26;103104.41;5074726;28;20500;-76
2023/03/01 09:22:59;;;;;;;20.02;14.98;;;;;;;10.30;79.95;103106.69;5075221;28;20381;-77
2023/03/01 09:25:24;;;;;;;17.63;14.02;;;;;;;10.46;70.38;103098.78;5074676;28;20337;-76
2023/03/01 09:27:54;;;;;;;17.55;13.70;;;;;;;10.87;67.65;103096.50;5075100;28;20463;-79
2023/03/01 09:30:20;;;;;;;16.20;13.27;;;;;;;10.96;63.70;103087.16;5075115;28;20079;-76
2023/03/01 09:32:46;;;;;;;16.17;12.48;;;;;;;10.92;60.85;103093.59;5074472;28;20025;-76
2023/03/01 09:35:12;;;;;;;17.02;13.15;;;;;;;11.21;59.29;103086.59;5056845;28;20029;-76
2023/03/01 09:37:38;;;;;;;15.35;11.85;;;;;;;11.42;58.59;103086.28;5074366;28;20039;-75
2023/03/01 09:40:21;;;;;;;12.15;9.52;;;;;;;12.14;51.50;103092.66;5074813;28;20029;-76
2023/03/01 09:43:05;;;;;;;12.00;9.65;;;;;;;12.04;51.45;103082.66;5073126;28;20039;-76
2023/03/01 09:45:36;;;;;;;16.40;9.80;;;;;;;12.45;50.69;103085.44;5074035;28;20032;-76
2023/03/01 09:48:05;;;;;;;16.67;10.93;;;;;;;12.34;51.31;103093.25;5075089;28;20479;-76
2023/03/01 09:50:38;;;;;;;13.65;10.35;;;;;;;12.42;50.69;103085.63;5074040;28;20495;-76
2023/03/01 09:53:12;;;;;;;14.30;10.80;;;;;;;12.29;49.10;103082.00;5074673;28;20020;-76
2023/03/01 09:56:03;;;;;;;15.52;11.40;;;;;;;12.33;48.73;103075.50;5073936;28;20052;-76
2023/03/01 09:58:39;;;;;;;15.85;11.73;;;;;;;12.73;51.25;103072.13;5055945;28;20124;-77
2023/03/01 10:01:23;;;;;;;15.85;11.82;;;;;;;13.09;49.48;103070.69;5074503;28;20036;-76
2023/03/01 10:04:17;;;;;;;13.88;11.48;;;;;;;13.57;49.19;103071.94;5073872;28;20484;-76
2023/03/01 10:06:51;;;;;;;15.68;10.85;;;;;;;13.36;47.71;103068.88;5029913;28;20166;-76
2023/03/01 10:09:18;;;;;;;15.85;10.90;;;;;;;13.46;48.30;103069.09;5056161;28;20441;-76
2023/03/01 10:11:50;;;;;;;16.55;11.80;;;;;;;13.32;48.08;103074.50;5073766;28;20073;-76
2023/03/01 10:14:34;;;;;;;;;;;;;;;13.39;48.30;103065.13;5074377;28;20150;-76
2023/03/01 10:17:04;;;;;;;13.85;10.20;;;;;;;13.51;46.15;103060.78;5074064;28;19973;-76
2023/03/01 10:19:41;;;;;;;11.87;9.20;;;;;;;13.28;45.33;103065.81;5073489;28;20021;-76
2023/03/01 10:22:16;;;;;;;10.50;9.30;;;;;;;13.76;45.30;103059.94;5073853;28;20073;-76
2023/03/01 10:24:42;;;;;;;11.25;9.05;;;;;;;13.91;44.38;103058.03;5073286;28;20040;-77
2023/03/01 10:27:21;;;;;;;9.88;8.57;;;;;;;13.99;43.61;103042.31;5073613;28;20029;-77
2023/03/01 10:30:16;;;;;;;14.20;9.40;;;;;;;13.95;43.84;103037.28;5055243;28;20070;-75
2023/03/01 10:32:42;;;;;;;12.55;9.25;;;;;;;14.17;43.45;103040.16;5027912;28;20047;-76
2023/03/01 10:35:29;;;;;;;11.38;9.02;;;;;;;13.82;43.64;103039.94;5073530;28;20097;-77
2023/03/01 10:38:09;;;;;;;10.80;7.72;;;;;;;13.77;44.76;103032.25;5055153;28;20350;-77
2023/03/01 10:40:50;;;;;;;13.43;7.68;;;;;;;13.84;41.59;103020.16;5072783;28;20032;-77
2023/03/01 10:43:15;;;;;;;11.85;8.60;;;;;;;13.98;41.99;103012.97;5073383;28;20028;-77
2023/03/01 10:45:41;;;;;;;10.98;9.20;;;;;;;13.95;41.91;103010.53;5072879;28;20492;-78
2023/03/01 10:48:28;;;;;;;13.65;9.15;;;;;;;13.67;43.65;103018.63;5073175;28;20389;-77
2023/03/01 10:50:59;;;;;;;13.98;8.30;;;;;;;13.33;44.01;103009.38;5072567;28;20033;-76
2023/03/01 10:53:28;;;;;;;;;;;;;;;12.97;43.52;103013.56;5055704;28;20453;-76
2023/03/01 10:56:08;;;;;;;12.05;7.97;;;;;;;12.99;42.66;103006.31;5072511;28;19916;-76
2023/03/01 10:58:36;;;;;;;11.52;8.65;;;;;;;13.02;43.82;103009.63;5072706;28;20070;-78
2023/03/01 11:01:17;;;;;;;11.15;8.23;;;;;;;13.02;43.87;103006.09;5073465;28;20036;-76
2023/03/01 11:03:42;;;;;;;9.85;8.20;;;;;;;12.78;44.59;103009.44;5072669;28;20157;-76
2023/03/01 11:06:10;;;;;;;11.80;8.07;;;;;;;12.76;43.14;103005.16;5072616;28;20040;-77
2023/03/01 11:08:43;;;;;;;10.05;7.90;;;;;;;12.25;45.08;103003.91;5072522;28;20029;-75
2023/03/01 11:11:30;;;;;;;13.55;8.95;;;;;;;11.94;45.13;103005.88;5072825;28;20059;-76